sensor_id;sensor_type;location;lat;lon;timestamp;P1;durP1;ratioP1;P2;durP2;ratioP2
33459;SDS011;19795;53.160;6.612;2022-12-13T06:17:38;31.33;;;15.27;;
33459;SDS011;19795;53.160;6.612;2022-12-13T06:20:16;35.15;;;18.13;;
33459;SDS011;19795;53.160;6.612;2022-12-13T06:22:42;36.40;;;17.35;;
33459;SDS011;19795;53.160;6.612;2022-12-13T06:25:08;35.10;;;17.15;;
33459;SDS011;19795;53.160;6.612;2022-12-13T06:27:34;33.13;;;17.70;;
33459;SDS011;19795;53.160;6.612;2022-12-13T06:30:00;34.15;;;16.92;;
33459;SDS011;19795;53.160;6.612;2022-12-13T06:32:25;34.65;;;17.30;;
33459;SDS011;19795;53.160;6.612;2022-12-13T06:34:51;37.13;;;17.38;;
33459;SDS011;19795;53.160;6.612;2022-12-13T06:37:17;35.92;;;16.63;;
33459;SDS011;19795;53.160;6.612;2022-12-13T06:39:42;33.47;;;17.60;;
33459;SDS011;19795;53.160;6.612;2022-12-13T06:42:15;35.38;;;18.02;;
33459;SDS011;19795;53.160;6.612;2022-12-13T06:44:42;39.25;;;19.33;;
33459;SDS011;19795;53.160;6.612;2022-12-13T06:47:08;37.40;;;18.08;;
33459;SDS011;19795;53.160;6.612;2022-12-13T06:49:34;41.65;;;19.92;;
33459;SDS011;19795;53.160;6.612;2022-12-13T06:52:00;41.67;;;19.13;;
33459;SDS011;19795;53.160;6.612;2022-12-13T06:54:25;37.88;;;19.45;;
33459;SDS011;19795;53.160;6.612;2022-12-13T06:56:51;36.45;;;18.17;;
33459;SDS011;19795;53.160;6.612;2022-12-13T06:59:19;40.55;;;19.13;;
33459;SDS011;19795;53.160;6.612;2022-12-13T07:01:45;37.70;;;18.40;;
33459;SDS011;19795;53.160;6.612;2022-12-13T07:04:11;40.50;;;18.40;;
33459;SDS011;19795;53.160;6.612;2022-12-13T07:06:37;39.13;;;18.70;;
33459;SDS011;19795;53.160;6.612;2022-12-13T07:09:03;35.40;;;18.73;;
33459;SDS011;19795;53.160;6.612;2022-12-13T07:11:29;32.95;;;17.45;;
33459;SDS011;19795;53.160;6.612;2022-12-13T07:13:57;36.85;;;17.35;;
33459;SDS011;19795;53.160;6.612;2022-12-13T07:16:24;33.10;;;17.88;;
33459;SDS011;19795;53.160;6.612;2022-12-13T07:18:57;33.85;;;17.27;;
33459;SDS011;19795;53.160;6.612;2022-12-13T07:21:24;34.78;;;16.90;;
33459;SDS011;19795;53.160;6.612;2022-12-13T07:23:50;31.98;;;16.83;;
33459;SDS011;19795;53.160;6.612;2022-12-13T07:26:16;33.88;;;17.02;;
33459;SDS011;19795;53.160;6.612;2022-12-13T07:28:42;36.22;;;18.05;;
33459;SDS011;19795;53.160;6.612;2022-12-13T07:31:08;34.47;;;17.38;;
33459;SDS011;19795;53.160;6.612;2022-12-13T07:33:35;36.50;;;18.27;;
33459;SDS011;19795;53.160;6.612;2022-12-13T07:36:01;40.45;;;18.70;;
33459;SDS011;19795;53.160;6.612;2022-12-13T07:38:28;35.13;;;17.60;;
33459;SDS011;19795;53.160;6.612;2022-12-13T07:40:55;37.53;;;17.98;;
33459;SDS011;19795;53.160;6.612;2022-12-13T07:43:22;41.60;;;16.77;;
33459;SDS011;19795;53.160;6.612;2022-12-13T07:45:49;34.90;;;17.15;;
33459;SDS011;19795;53.160;6.612;2022-12-13T07:48:17;35.85;;;18.13;;
33459;SDS011;19795;53.160;6.612;2022-12-13T07:54:26;41.15;;;18.50;;
33459;SDS011;19795;53.160;6.612;2022-12-13T07:56:59;35.95;;;17.23;;
33459;SDS011;19795;53.160;6.612;2022-12-13T07:59:35;42.47;;;18.42;;
33459;SDS011;19795;53.160;6.612;2022-12-13T08:02:01;31.30;;;17.15;;
33459;SDS011;19795;53.160;6.612;2022-12-13T08:04:27;32.08;;;18.05;;
33459;SDS011;19795;53.160;6.612;2022-12-13T08:06:56;37.22;;;18.02;;
33459;SDS011;19795;53.160;6.612;2022-12-13T08:09:22;38.78;;;19.77;;
33459;SDS011;19795;53.160;6.612;2022-12-13T08:11:47;43.53;;;20.30;;
33459;SDS011;19795;53.160;6.612;2022-12-13T08:14:14;39.45;;;19.27;;
33459;SDS011;19795;53.160;6.612;2022-12-13T08:16:40;38.03;;;18.58;;
33459;SDS011;19795;53.160;6.612;2022-12-13T08:19:05;35.50;;;18.30;;
33459;SDS011;19795;53.160;6.612;2022-12-13T08:21:35;41.08;;;19.45;;
33459;SDS011;19795;53.160;6.612;2022-12-13T08:24:02;39.67;;;19.63;;
33459;SDS011;19795;53.160;6.612;2022-12-13T08:26:28;39.58;;;20.33;;
33459;SDS011;19795;53.160;6.612;2022-12-13T08:28:53;37.53;;;18.95;;
33459;SDS011;19795;53.160;6.612;2022-12-13T08:31:19;38.88;;;19.83;;
33459;SDS011;19795;53.160;6.612;2022-12-13T08:33:45;43.00;;;20.27;;
33459;SDS011;19795;53.160;6.612;2022-12-13T08:36:15;36.10;;;19.13;;
33459;SDS011;19795;53.160;6.612;2022-12-13T08:38:42;40.63;;;20.00;;
33459;SDS011;19795;53.160;6.612;2022-12-13T08:41:11;37.72;;;19.10;;
33459;SDS011;19795;53.160;6.612;2022-12-13T08:43:37;37.85;;;20.45;;
33459;SDS011;19795;53.160;6.612;2022-12-13T08:46:03;38.13;;;19.52;;
33459;SDS011;19795;53.160;6.612;2022-12-13T08:48:30;37.80;;;20.23;;
33459;SDS011;19795;53.160;6.612;2022-12-13T08:51:00;36.20;;;20.75;;
33459;SDS011;19795;53.160;6.612;2022-12-13T08:53:33;41.67;;;20.00;;
33459;SDS011;19795;53.160;6.612;2022-12-13T08:56:00;39.03;;;20.92;;
33459;SDS011;19795;53.160;6.612;2022-12-13T08:58:26;38.03;;;19.90;;
33459;SDS011;19795;53.160;6.612;2022-12-13T09:00:52;39.03;;;21.15;;
33459;SDS011;19795;53.160;6.612;2022-12-13T09:03:18;42.05;;;20.80;;
33459;SDS011;19795;53.160;6.612;2022-12-13T09:05:44;37.35;;;19.02;;
33459;SDS011;19795;53.160;6.612;2022-12-13T09:08:09;37.42;;;20.00;;
33459;SDS011;19795;53.160;6.612;2022-12-13T09:10:35;37.05;;;19.45;;
33459;SDS011;19795;53.160;6.612;2022-12-13T09:13:01;40.10;;;20.15;;
33459;SDS011;19795;53.160;6.612;2022-12-13T09:15:27;36.10;;;18.90;;
33459;SDS011;19795;53.160;6.612;2022-12-13T09:17:54;38.72;;;20.27;;
33459;SDS011;19795;53.160;6.612;2022-12-13T09:20:19;40.67;;;20.13;;
33459;SDS011;19795;53.160;6.612;2022-12-13T09:22:45;37.53;;;18.98;;
33459;SDS011;19795;53.160;6.612;2022-12-13T09:25:11;36.83;;;19.52;;
33459;SDS011;19795;53.160;6.612;2022-12-13T09:27:37;37.45;;;20.52;;
33459;SDS011;19795;53.160;6.612;2022-12-13T09:30:03;35.85;;;19.08;;
33459;SDS011;19795;53.160;6.612;2022-12-13T09:32:30;37.65;;;19.92;;
33459;SDS011;19795;53.160;6.612;2022-12-13T09:34:56;37.35;;;20.45;;
33459;SDS011;19795;53.160;6.612;2022-12-13T09:37:22;36.08;;;19.50;;
33459;SDS011;19795;53.160;6.612;2022-12-13T09:39:47;42.78;;;21.40;;
33459;SDS011;19795;53.160;6.612;2022-12-13T09:42:17;37.35;;;19.70;;
33459;SDS011;19795;53.160;6.612;2022-12-13T09:44:51;35.10;;;18.80;;
33459;SDS011;19795;53.160;6.612;2022-12-13T09:47:30;41.40;;;21.65;;
33459;SDS011;19795;53.160;6.612;2022-12-13T09:49:59;36.28;;;20.27;;
33459;SDS011;19795;53.160;6.612;2022-12-13T09:52:29;41.05;;;20.05;;
33459;SDS011;19795;53.160;6.612;2022-12-13T09:55:06;38.40;;;19.85;;
33459;SDS011;19795;53.160;6.612;2022-12-13T09:57:44;43.63;;;21.45;;
33459;SDS011;19795;53.160;6.612;2022-12-13T10:00:12;43.50;;;20.70;;
33459;SDS011;19795;53.160;6.612;2022-12-13T10:03:01;37.97;;;20.10;;
33459;SDS011;19795;53.160;6.612;2022-12-13T10:05:33;38.70;;;19.45;;
33459;SDS011;19795;53.160;6.612;2022-12-13T10:08:14;43.53;;;21.30;;
33459;SDS011;19795;53.160;6.612;2022-12-13T10:10:44;45.03;;;20.48;;
33459;SDS011;19795;53.160;6.612;2022-12-13T10:16:01;40.83;;;20.17;;
33459;SDS011;19795;53.160;6.612;2022-12-13T10:18:33;37.72;;;20.92;;
33459;SDS011;19795;53.160;6.612;2022-12-13T10:21:01;42.58;;;21.77;;
33459;SDS011;19795;53.160;6.612;2022-12-13T10:23:29;41.55;;;21.20;;
33459;SDS011;19795;53.160;6.612;2022-12-13T10:25:55;41.92;;;21.55;;
33459;SDS011;19795;53.160;6.612;2022-12-13T10:28:30;40.65;;;21.58;;
33459;SDS011;19795;53.160;6.612;2022-12-13T10:30:58;43.47;;;22.08;;
33459;SDS011;19795;53.160;6.612;2022-12-13T10:33:26;43.13;;;21.83;;
33459;SDS011;19795;53.160;6.612;2022-12-13T10:36:02;41.28;;;21.85;;
33459;SDS011;19795;53.160;6.612;2022-12-13T10:38:33;45.33;;;22.35;;
33459;SDS011;19795;53.160;6.612;2022-12-13T10:41:01;42.97;;;23.25;;
33459;SDS011;19795;53.160;6.612;2022-12-13T10:43:27;43.85;;;24.40;;
33459;SDS011;19795;53.160;6.612;2022-12-13T10:48:21;38.83;;;20.92;;
33459;SDS011;19795;53.160;6.612;2022-12-13T10:53:44;45.58;;;24.98;;
33459;SDS011;19795;53.160;6.612;2022-12-13T10:56:10;41.72;;;20.85;;
33459;SDS011;19795;53.160;6.612;2022-12-13T10:58:40;42.83;;;24.15;;
33459;SDS011;19795;53.160;6.612;2022-12-13T11:01:08;41.88;;;21.77;;
33459;SDS011;19795;53.160;6.612;2022-12-13T11:06:26;45.15;;;22.90;;
33459;SDS011;19795;53.160;6.612;2022-12-13T11:08:53;39.85;;;22.10;;
33459;SDS011;19795;53.160;6.612;2022-12-13T11:11:26;38.33;;;22.23;;
33459;SDS011;19795;53.160;6.612;2022-12-13T11:13:54;34.50;;;21.60;;
33459;SDS011;19795;53.160;6.612;2022-12-13T11:18:54;39.03;;;21.70;;
33459;SDS011;19795;53.160;6.612;2022-12-13T11:21:30;37.33;;;21.00;;
33459;SDS011;19795;53.160;6.612;2022-12-13T11:24:02;42.90;;;21.98;;
33459;SDS011;19795;53.160;6.612;2022-12-13T11:26:35;39.50;;;21.85;;
33459;SDS011;19795;53.160;6.612;2022-12-13T11:29:26;36.15;;;21.23;;
33459;SDS011;19795;53.160;6.612;2022-12-13T11:32:17;37.92;;;20.73;;
33459;SDS011;19795;53.160;6.612;2022-12-13T11:40:58;36.50;;;19.65;;
33459;SDS011;19795;53.160;6.612;2022-12-13T11:46:10;38.33;;;21.45;;
33459;SDS011;19795;53.160;6.612;2022-12-13T11:48:55;32.80;;;19.23;;
33459;SDS011;19795;53.160;6.612;2022-12-13T11:51:42;34.10;;;19.10;;
33459;SDS011;19795;53.160;6.612;2022-12-13T11:54:25;37.55;;;19.25;;
33459;SDS011;19795;53.160;6.612;2022-12-13T11:57:11;33.38;;;19.10;;
33459;SDS011;19795;53.160;6.612;2022-12-13T11:59:44;35.10;;;19.40;;
33459;SDS011;19795;53.160;6.612;2022-12-13T12:04:52;34.72;;;18.88;;
33459;SDS011;19795;53.160;6.612;2022-12-13T12:07:20;37.67;;;19.27;;
33459;SDS011;19795;53.160;6.612;2022-12-13T12:09:56;31.85;;;19.25;;
33459;SDS011;19795;53.160;6.612;2022-12-13T12:12:31;34.67;;;19.35;;
33459;SDS011;19795;53.160;6.612;2022-12-13T12:15:01;36.08;;;19.80;;
33459;SDS011;19795;53.160;6.612;2022-12-13T12:17:32;34.92;;;19.92;;
33459;SDS011;19795;53.160;6.612;2022-12-13T12:19:57;30.90;;;18.73;;
33459;SDS011;19795;53.160;6.612;2022-12-13T12:27:34;24.65;;;15.52;;
33459;SDS011;19795;53.160;6.612;2022-12-13T12:43:11;26.17;;;15.32;;
33459;SDS011;19795;53.160;6.612;2022-12-13T12:51:11;28.08;;;14.73;;
33459;SDS011;19795;53.160;6.612;2022-12-13T12:54:16;25.33;;;14.40;;
33459;SDS011;19795;53.160;6.612;2022-12-13T12:57:25;35.47;;;16.50;;
33459;SDS011;19795;53.160;6.612;2022-12-13T13:00:10;28.40;;;14.40;;
33459;SDS011;19795;53.160;6.612;2022-12-13T13:02:42;26.05;;;14.43;;
33459;SDS011;19795;53.160;6.612;2022-12-13T13:05:19;26.88;;;14.63;;
33459;SDS011;19795;53.160;6.612;2022-12-13T13:07:51;28.05;;;14.90;;
33459;SDS011;19795;53.160;6.612;2022-12-13T13:10:24;25.33;;;15.32;;
33459;SDS011;19795;53.160;6.612;2022-12-13T13:12:51;25.65;;;14.43;;
33459;SDS011;19795;53.160;6.612;2022-12-13T13:18:00;28.77;;;14.82;;
33459;SDS011;19795;53.160;6.612;2022-12-13T13:20:27;27.95;;;15.63;;
33459;SDS011;19795;53.160;6.612;2022-12-13T13:22:53;26.75;;;15.30;;
33459;SDS011;19795;53.160;6.612;2022-12-13T13:28:04;26.50;;;14.98;;
33459;SDS011;19795;53.160;6.612;2022-12-13T13:33:48;28.55;;;14.98;;
33459;SDS011;19795;53.160;6.612;2022-12-13T13:36:44;26.85;;;14.70;;
33459;SDS011;19795;53.160;6.612;2022-12-13T13:39:14;27.67;;;15.93;;
33459;SDS011;19795;53.160;6.612;2022-12-13T13:44:32;26.98;;;15.35;;
33459;SDS011;19795;53.160;6.612;2022-12-13T13:49:53;30.83;;;16.05;;
33459;SDS011;19795;53.160;6.612;2022-12-13T13:52:26;27.50;;;15.50;;
33459;SDS011;19795;53.160;6.612;2022-12-13T14:01:34;31.13;;;16.48;;
33459;SDS011;19795;53.160;6.612;2022-12-13T14:15:58;31.80;;;17.33;;
33459;SDS011;19795;53.160;6.612;2022-12-13T14:23:51;38.72;;;18.83;;
33459;SDS011;19795;53.160;6.612;2022-12-13T14:26:29;36.97;;;18.88;;
33459;SDS011;19795;53.160;6.612;2022-12-13T14:29:13;34.55;;;17.90;;
33459;SDS011;19795;53.160;6.612;2022-12-13T14:34:14;35.38;;;18.77;;
33459;SDS011;19795;53.160;6.612;2022-12-13T14:36:48;33.92;;;19.48;;
33459;SDS011;19795;53.160;6.612;2022-12-13T14:39:22;31.95;;;19.50;;
33459;SDS011;19795;53.160;6.612;2022-12-13T14:41:54;36.10;;;19.90;;
33459;SDS011;19795;53.160;6.612;2022-12-13T14:44:22;39.10;;;21.40;;
33459;SDS011;19795;53.160;6.612;2022-12-13T14:47:12;40.03;;;20.10;;
33459;SDS011;19795;53.160;6.612;2022-12-13T14:49:39;36.38;;;19.73;;
33459;SDS011;19795;53.160;6.612;2022-12-13T14:52:08;41.83;;;21.40;;
33459;SDS011;19795;53.160;6.612;2022-12-13T14:54:44;38.45;;;20.17;;
33459;SDS011;19795;53.160;6.612;2022-12-13T14:57:19;37.40;;;19.98;;
33459;SDS011;19795;53.160;6.612;2022-12-13T14:59:47;33.05;;;19.05;;
33459;SDS011;19795;53.160;6.612;2022-12-13T15:02:16;38.00;;;20.30;;
33459;SDS011;19795;53.160;6.612;2022-12-13T15:04:55;38.03;;;20.70;;
33459;SDS011;19795;53.160;6.612;2022-12-13T15:09:54;42.33;;;21.27;;
33459;SDS011;19795;53.160;6.612;2022-12-13T15:12:25;38.58;;;21.23;;
33459;SDS011;19795;53.160;6.612;2022-12-13T15:14:59;43.17;;;22.33;;
33459;SDS011;19795;53.160;6.612;2022-12-13T15:17:34;36.08;;;19.83;;
33459;SDS011;19795;53.160;6.612;2022-12-13T15:25:12;38.20;;;19.35;;
33459;SDS011;19795;53.160;6.612;2022-12-13T15:27:39;35.00;;;20.20;;
33459;SDS011;19795;53.160;6.612;2022-12-13T15:30:05;42.58;;;21.85;;
33459;SDS011;19795;53.160;6.612;2022-12-13T15:32:36;38.67;;;20.67;;
33459;SDS011;19795;53.160;6.612;2022-12-13T15:35:43;40.80;;;21.05;;
33459;SDS011;19795;53.160;6.612;2022-12-13T15:38:11;39.55;;;20.77;;
33459;SDS011;19795;53.160;6.612;2022-12-13T15:40:46;39.72;;;20.55;;
33459;SDS011;19795;53.160;6.612;2022-12-13T15:43:14;40.50;;;21.27;;
33459;SDS011;19795;53.160;6.612;2022-12-13T15:45:47;43.85;;;21.50;;
33459;SDS011;19795;53.160;6.612;2022-12-13T15:48:21;42.53;;;21.05;;
33459;SDS011;19795;53.160;6.612;2022-12-13T15:51:06;38.28;;;19.65;;
33459;SDS011;19795;53.160;6.612;2022-12-13T15:53:36;40.95;;;20.45;;
33459;SDS011;19795;53.160;6.612;2022-12-13T15:58:56;44.10;;;20.52;;
33459;SDS011;19795;53.160;6.612;2022-12-13T16:01:29;40.33;;;20.58;;
33459;SDS011;19795;53.160;6.612;2022-12-13T16:03:57;37.85;;;20.20;;
33459;SDS011;19795;53.160;6.612;2022-12-13T16:06:24;41.80;;;20.90;;
33459;SDS011;19795;53.160;6.612;2022-12-13T16:08:52;36.25;;;19.88;;
33459;SDS011;19795;53.160;6.612;2022-12-13T16:11:34;42.15;;;20.70;;
33459;SDS011;19795;53.160;6.612;2022-12-13T16:16:57;39.80;;;19.73;;
33459;SDS011;19795;53.160;6.612;2022-12-13T16:19:29;39.65;;;19.60;;
33459;SDS011;19795;53.160;6.612;2022-12-13T16:21:56;34.75;;;19.30;;
33459;SDS011;19795;53.160;6.612;2022-12-13T16:24:22;41.53;;;19.92;;
33459;SDS011;19795;53.160;6.612;2022-12-13T16:26:47;44.55;;;21.55;;
33459;SDS011;19795;53.160;6.612;2022-12-13T16:29:14;44.00;;;21.67;;
33459;SDS011;19795;53.160;6.612;2022-12-13T16:31:43;42.08;;;20.52;;
33459;SDS011;19795;53.160;6.612;2022-12-13T16:34:09;41.50;;;21.05;;
33459;SDS011;19795;53.160;6.612;2022-12-13T16:36:35;43.20;;;22.90;;
33459;SDS011;19795;53.160;6.612;2022-12-13T16:39:02;41.90;;;23.48;;
33459;SDS011;19795;53.160;6.612;2022-12-13T16:41:28;59.42;;;31.10;;
33459;SDS011;19795;53.160;6.612;2022-12-13T16:43:55;52.78;;;25.83;;
33459;SDS011;19795;53.160;6.612;2022-12-13T16:46:28;48.63;;;26.42;;
33459;SDS011;19795;53.160;6.612;2022-12-13T16:48:54;51.20;;;23.88;;
33459;SDS011;19795;53.160;6.612;2022-12-13T16:51:20;42.97;;;21.95;;
33459;SDS011;19795;53.160;6.612;2022-12-13T16:53:45;50.28;;;23.60;;
33459;SDS011;19795;53.160;6.612;2022-12-13T16:56:11;48.30;;;24.17;;
33459;SDS011;19795;53.160;6.612;2022-12-13T16:58:40;48.67;;;25.92;;
33459;SDS011;19795;53.160;6.612;2022-12-13T17:01:08;51.05;;;25.67;;
33459;SDS011;19795;53.160;6.612;2022-12-13T17:03:35;55.65;;;26.98;;
33459;SDS011;19795;53.160;6.612;2022-12-13T17:06:01;51.58;;;27.00;;
33459;SDS011;19795;53.160;6.612;2022-12-13T17:08:27;50.55;;;26.40;;
33459;SDS011;19795;53.160;6.612;2022-12-13T17:10:53;50.35;;;28.17;;
33459;SDS011;19795;53.160;6.612;2022-12-13T17:13:18;58.65;;;28.17;;
33459;SDS011;19795;53.160;6.612;2022-12-13T17:15:44;48.25;;;26.00;;
33459;SDS011;19795;53.160;6.612;2022-12-13T17:18:10;51.25;;;26.65;;
33459;SDS011;19795;53.160;6.612;2022-12-13T17:20:35;47.50;;;25.65;;
33459;SDS011;19795;53.160;6.612;2022-12-13T17:23:01;52.10;;;28.52;;
33459;SDS011;19795;53.160;6.612;2022-12-13T17:25:50;51.40;;;26.90;;
33459;SDS011;19795;53.160;6.612;2022-12-13T17:28:59;53.80;;;29.15;;
33459;SDS011;19795;53.160;6.612;2022-12-13T17:31:54;48.80;;;26.42;;
33459;SDS011;19795;53.160;6.612;2022-12-13T17:34:20;53.53;;;27.38;;
33459;SDS011;19795;53.160;6.612;2022-12-13T17:36:46;48.03;;;26.08;;
33459;SDS011;19795;53.160;6.612;2022-12-13T17:39:12;52.30;;;27.50;;
33459;SDS011;19795;53.160;6.612;2022-12-13T17:41:38;47.55;;;25.02;;
33459;SDS011;19795;53.160;6.612;2022-12-13T17:44:04;49.53;;;25.73;;
33459;SDS011;19795;53.160;6.612;2022-12-13T17:46:30;53.95;;;25.55;;
33459;SDS011;19795;53.160;6.612;2022-12-13T17:48:56;54.35;;;26.33;;
33459;SDS011;19795;53.160;6.612;2022-12-13T17:51:21;50.25;;;24.42;;
33459;SDS011;19795;53.160;6.612;2022-12-13T17:53:47;54.47;;;27.20;;
33459;SDS011;19795;53.160;6.612;2022-12-13T17:56:13;55.75;;;27.90;;
33459;SDS011;19795;53.160;6.612;2022-12-13T17:58:40;60.40;;;28.20;;
33459;SDS011;19795;53.160;6.612;2022-12-13T18:01:13;52.53;;;26.85;;
33459;SDS011;19795;53.160;6.612;2022-12-13T18:03:41;57.15;;;28.80;;
33459;SDS011;19795;53.160;6.612;2022-12-13T18:06:07;55.78;;;28.13;;
33459;SDS011;19795;53.160;6.612;2022-12-13T18:08:34;55.28;;;27.95;;
33459;SDS011;19795;53.160;6.612;2022-12-13T18:11:00;51.13;;;26.98;;
33459;SDS011;19795;53.160;6.612;2022-12-13T18:13:27;58.33;;;29.98;;
33459;SDS011;19795;53.160;6.612;2022-12-13T18:15:53;55.78;;;29.10;;
33459;SDS011;19795;53.160;6.612;2022-12-13T18:18:19;63.25;;;31.58;;
33459;SDS011;19795;53.160;6.612;2022-12-13T18:20:45;59.45;;;31.55;;
33459;SDS011;19795;53.160;6.612;2022-12-13T18:23:11;60.67;;;31.33;;
33459;SDS011;19795;53.160;6.612;2022-12-13T18:25:37;61.70;;;30.63;;
33459;SDS011;19795;53.160;6.612;2022-12-13T18:28:03;54.28;;;27.73;;
33459;SDS011;19795;53.160;6.612;2022-12-13T18:30:29;63.20;;;29.13;;
33459;SDS011;19795;53.160;6.612;2022-12-13T18:32:56;61.35;;;29.83;;
33459;SDS011;19795;53.160;6.612;2022-12-13T18:35:22;66.63;;;32.33;;
33459;SDS011;19795;53.160;6.612;2022-12-13T18:37:48;61.17;;;30.38;;
33459;SDS011;19795;53.160;6.612;2022-12-13T18:40:13;63.55;;;30.42;;
33459;SDS011;19795;53.160;6.612;2022-12-13T18:42:39;67.03;;;32.58;;
33459;SDS011;19795;53.160;6.612;2022-12-13T18:45:05;69.90;;;30.35;;
33459;SDS011;19795;53.160;6.612;2022-12-13T18:47:31;65.88;;;31.60;;
33459;SDS011;19795;53.160;6.612;2022-12-13T18:49:56;67.32;;;31.70;;
33459;SDS011;19795;53.160;6.612;2022-12-13T18:52:22;58.70;;;31.20;;
33459;SDS011;19795;53.160;6.612;2022-12-13T18:54:49;65.00;;;31.17;;
33459;SDS011;19795;53.160;6.612;2022-12-13T18:57:16;64.60;;;30.70;;
33459;SDS011;19795;53.160;6.612;2022-12-13T18:59:42;66.07;;;30.90;;
33459;SDS011;19795;53.160;6.612;2022-12-13T19:02:11;61.72;;;30.52;;
33459;SDS011;19795;53.160;6.612;2022-12-13T19:04:37;60.35;;;30.33;;
33459;SDS011;19795;53.160;6.612;2022-12-13T19:07:03;61.65;;;32.03;;
33459;SDS011;19795;53.160;6.612;2022-12-13T19:09:29;61.60;;;31.65;;
33459;SDS011;19795;53.160;6.612;2022-12-13T19:11:55;55.50;;;29.00;;
33459;SDS011;19795;53.160;6.612;2022-12-13T19:14:21;62.53;;;29.98;;
33459;SDS011;19795;53.160;6.612;2022-12-13T19:16:46;57.05;;;28.48;;
33459;SDS011;19795;53.160;6.612;2022-12-13T19:19:13;54.55;;;28.95;;
33459;SDS011;19795;53.160;6.612;2022-12-13T19:21:39;62.90;;;30.73;;
33459;SDS011;19795;53.160;6.612;2022-12-13T19:24:05;61.75;;;30.65;;
33459;SDS011;19795;53.160;6.612;2022-12-13T19:26:33;61.55;;;30.17;;
33459;SDS011;19795;53.160;6.612;2022-12-13T19:28:59;60.35;;;31.60;;
33459;SDS011;19795;53.160;6.612;2022-12-13T19:31:24;61.42;;;30.73;;
33459;SDS011;19795;53.160;6.612;2022-12-13T19:33:51;61.58;;;29.52;;
33459;SDS011;19795;53.160;6.612;2022-12-13T19:36:16;59.00;;;30.45;;
33459;SDS011;19795;53.160;6.612;2022-12-13T19:38:42;57.78;;;30.02;;
33459;SDS011;19795;53.160;6.612;2022-12-13T19:41:11;62.45;;;30.42;;
33459;SDS011;19795;53.160;6.612;2022-12-13T19:43:40;60.28;;;28.70;;
33459;SDS011;19795;53.160;6.612;2022-12-13T19:46:06;64.78;;;31.20;;
33459;SDS011;19795;53.160;6.612;2022-12-13T19:48:33;59.50;;;30.08;;
33459;SDS011;19795;53.160;6.612;2022-12-13T19:51:01;60.05;;;28.90;;
33459;SDS011;19795;53.160;6.612;2022-12-13T19:53:33;60.67;;;30.00;;
33459;SDS011;19795;53.160;6.612;2022-12-13T19:55:59;64.00;;;31.27;;
33459;SDS011;19795;53.160;6.612;2022-12-13T19:58:25;63.65;;;31.85;;
33459;SDS011;19795;53.160;6.612;2022-12-13T20:00:59;68.05;;;31.35;;
33459;SDS011;19795;53.160;6.612;2022-12-13T20:03:26;64.75;;;31.05;;
33459;SDS011;19795;53.160;6.612;2022-12-13T20:05:55;59.13;;;31.63;;
33459;SDS011;19795;53.160;6.612;2022-12-13T20:08:22;61.80;;;31.25;;
33459;SDS011;19795;53.160;6.612;2022-12-13T20:10:47;65.30;;;33.80;;
33459;SDS011;19795;53.160;6.612;2022-12-13T20:13:29;68.32;;;31.23;;
33459;SDS011;19795;53.160;6.612;2022-12-13T20:15:55;66.85;;;33.22;;
33459;SDS011;19795;53.160;6.612;2022-12-13T20:18:22;69.65;;;32.80;;
33459;SDS011;19795;53.160;6.612;2022-12-13T20:20:48;65.55;;;32.25;;
33459;SDS011;19795;53.160;6.612;2022-12-13T20:23:13;64.95;;;33.28;;
33459;SDS011;19795;53.160;6.612;2022-12-13T20:25:39;63.05;;;29.27;;
33459;SDS011;19795;53.160;6.612;2022-12-13T20:28:05;67.90;;;32.65;;
33459;SDS011;19795;53.160;6.612;2022-12-13T20:30:31;60.20;;;31.08;;
33459;SDS011;19795;53.160;6.612;2022-12-13T20:32:57;67.57;;;31.42;;
33459;SDS011;19795;53.160;6.612;2022-12-13T20:35:23;66.20;;;33.63;;
33459;SDS011;19795;53.160;6.612;2022-12-13T20:37:49;66.18;;;32.95;;
33459;SDS011;19795;53.160;6.612;2022-12-13T20:40:14;68.78;;;32.95;;
33459;SDS011;19795;53.160;6.612;2022-12-13T20:42:40;69.20;;;33.15;;
33459;SDS011;19795;53.160;6.612;2022-12-13T20:45:06;69.75;;;32.15;;
33459;SDS011;19795;53.160;6.612;2022-12-13T20:47:32;58.53;;;32.00;;
33459;SDS011;19795;53.160;6.612;2022-12-13T20:49:58;61.40;;;31.77;;
33459;SDS011;19795;53.160;6.612;2022-12-13T20:52:24;63.95;;;32.15;;
33459;SDS011;19795;53.160;6.612;2022-12-13T20:54:49;64.88;;;31.25;;
33459;SDS011;19795;53.160;6.612;2022-12-13T20:57:15;66.90;;;32.65;;
33459;SDS011;19795;53.160;6.612;2022-12-13T20:59:41;49.88;;;29.90;;
33459;SDS011;19795;53.160;6.612;2022-12-13T21:02:08;60.38;;;30.95;;
33459;SDS011;19795;53.160;6.612;2022-12-13T21:04:34;57.38;;;30.73;;
33459;SDS011;19795;53.160;6.612;2022-12-13T21:07:02;57.22;;;30.92;;
33459;SDS011;19795;53.160;6.612;2022-12-13T21:09:29;62.15;;;30.65;;
33459;SDS011;19795;53.160;6.612;2022-12-13T21:11:54;54.08;;;29.02;;
33459;SDS011;19795;53.160;6.612;2022-12-13T21:14:22;60.67;;;30.48;;
33459;SDS011;19795;53.160;6.612;2022-12-13T21:19:15;56.47;;;29.33;;
33459;SDS011;19795;53.160;6.612;2022-12-13T21:21:43;54.80;;;30.10;;
33459;SDS011;19795;53.160;6.612;2022-12-13T21:24:16;57.53;;;32.58;;
33459;SDS011;19795;53.160;6.612;2022-12-13T21:26:43;52.10;;;29.27;;
33459;SDS011;19795;53.160;6.612;2022-12-13T21:29:09;53.28;;;28.15;;
33459;SDS011;19795;53.160;6.612;2022-12-13T21:31:36;60.40;;;30.85;;
33459;SDS011;19795;53.160;6.612;2022-12-13T21:34:04;51.00;;;28.73;;
33459;SDS011;19795;53.160;6.612;2022-12-13T21:36:31;52.33;;;28.42;;
33459;SDS011;19795;53.160;6.612;2022-12-13T21:39:04;53.70;;;28.65;;
33459;SDS011;19795;53.160;6.612;2022-12-13T21:41:31;61.15;;;30.00;;
33459;SDS011;19795;53.160;6.612;2022-12-13T21:43:57;51.20;;;29.23;;
33459;SDS011;19795;53.160;6.612;2022-12-13T21:46:23;53.55;;;27.83;;
33459;SDS011;19795;53.160;6.612;2022-12-13T21:48:51;54.67;;;29.67;;
33459;SDS011;19795;53.160;6.612;2022-12-13T21:51:18;53.03;;;27.02;;
33459;SDS011;19795;53.160;6.612;2022-12-13T21:53:49;56.30;;;28.83;;
33459;SDS011;19795;53.160;6.612;2022-12-13T21:56:17;48.00;;;26.83;;
33459;SDS011;19795;53.160;6.612;2022-12-13T21:59:12;48.10;;;26.08;;
33459;SDS011;19795;53.160;6.612;2022-12-13T22:02:03;49.78;;;26.60;;
33459;SDS011;19795;53.160;6.612;2022-12-13T22:04:37;47.03;;;24.63;;
33459;SDS011;19795;53.160;6.612;2022-12-13T22:07:08;45.95;;;26.52;;
33459;SDS011;19795;53.160;6.612;2022-12-13T22:09:39;51.22;;;26.60;;
33459;SDS011;19795;53.160;6.612;2022-12-13T22:12:08;50.03;;;26.75;;
33459;SDS011;19795;53.160;6.612;2022-12-13T22:14:42;46.47;;;26.45;;
33459;SDS011;19795;53.160;6.612;2022-12-13T22:17:07;47.22;;;26.17;;
33459;SDS011;19795;53.160;6.612;2022-12-13T22:19:33;47.60;;;26.40;;
33459;SDS011;19795;53.160;6.612;2022-12-13T22:21:59;42.65;;;24.67;;
